Time;durP1;ratioP1;P1;durP2;ratioP2;P2;SDS_P1;SDS_P2;PMS_P1;PMS_P2;Temp;Humidity;BMP_temperature;BMP_pressure;BME280_temperature;BME280_humidity;BME280_pressure;Samples;Min_cycle;Max_cycle;Signal;HPM_P1;HPM_P2
2023/06/22 00:01:47;;;;;;;9.63;8.32;;;;;;;22.25;84.85;100296.31;5109086;28;20031;-18
2023/06/22 00:04:12;;;;;;;12.05;8.95;;;;;;;22.06;85.91;100296.25;5108899;28;20134;-18
2023/06/22 00:06:38;;;;;;;11.45;8.80;;;;;;;22.25;85.23;100293.59;5108829;28;20034;-18
2023/06/22 00:09:03;;;;;;;10.57;8.13;;;;;;;21.84;88.29;100302.19;5108780;28;20472;-18
2023/06/22 00:11:29;;;;;;;11.10;8.35;;;;;;;21.84;88.08;100304.91;5108931;28;20027;-18
2023/06/22 00:13:54;;;;;;;11.95;8.82;;;;;;;21.77;88.48;100307.16;5108902;28;20051;-19
2023/06/22 00:16:20;;;;;;;12.27;8.02;;;;;;;21.83;87.49;100300.59;5108713;28;20135;-19
2023/06/22 00:18:47;;;;;;;11.50;8.80;;;;;;;21.74;88.69;100297.69;5108674;28;20852;-18
2023/06/22 00:21:13;;;;;;;11.03;8.73;;;;;;;21.17;92.07;100305.53;5108633;28;20023;-18
2023/06/22 00:23:38;;;;;;;13.18;9.20;;;;;;;21.49;91.65;100304.16;5108468;28;20288;-18
2023/06/22 00:26:04;;;;;;;12.90;8.40;;;;;;;21.75;89.80;100306.66;5108622;28;20027;-18
2023/06/22 00:28:30;;;;;;;11.40;8.70;;;;;;;21.83;88.27;100316.88;5107618;28;20027;-18
2023/06/22 00:30:55;;;;;;;10.50;8.63;;;;;;;21.52;90.28;100321.81;5108823;28;20028;-20
2023/06/22 00:33:21;;;;;;;10.45;8.25;;;;;;;21.76;88.21;100321.81;5108136;28;20438;-19
2023/06/22 00:35:46;;;;;;;10.35;8.38;;;;;;;21.84;88.45;100323.91;5108092;28;20039;-19
2023/06/22 00:38:12;;;;;;;11.70;8.70;;;;;;;21.85;89.02;100330.97;5108283;28;20032;-18
2023/06/22 00:40:37;;;;;;;11.65;8.13;;;;;;;21.90;88.79;100322.75;5108210;28;20019;-21
2023/06/22 00:43:04;;;;;;;14.57;8.88;;;;;;;21.98;87.76;100319.41;5108017;28;20693;-18
2023/06/22 00:45:30;;;;;;;12.52;9.25;;;;;;;21.61;89.78;100314.66;5107933;28;20035;-18
2023/06/22 00:47:58;;;;;;;11.00;8.50;;;;;;;21.58;88.46;100305.19;5108480;28;20027;-18
2023/06/22 00:50:26;;;;;;;12.15;9.63;;;;;;;21.62;87.85;100311.66;5108141;28;20089;-18
2023/06/22 00:52:56;;;;;;;12.07;9.10;;;;;;;21.52;88.21;100322.59;5108374;28;20062;-18
2023/06/22 00:55:22;;;;;;;11.93;9.10;;;;;;;21.67;88.25;100325.16;5108077;28;20024;-19
2023/06/22 00:57:48;;;;;;;11.55;8.80;;;;;;;21.72;87.59;100320.78;5108165;28;20023;-18
2023/06/22 01:00:19;;;;;;;11.32;9.25;;;;;;;21.31;90.37;100321.94;5108107;28;20743;-18
2023/06/22 01:02:45;;;;;;;11.88;9.05;;;;;;;21.01;93.26;100317.56;5107790;28;20036;-18
2023/06/22 01:05:15;;;;;;;11.43;8.57;;;;;;;20.83;94.07;100325.28;5107665;28;21058;-19
2023/06/22 01:08:07;;;;;;;12.00;8.48;;;;;;;20.81;94.19;100329.34;5107697;28;20030;-18
2023/06/22 01:10:48;;;;;;;11.15;8.88;;;;;;;21.15;91.40;100331.31;5096384;28;20040;-20
2023/06/22 01:13:38;;;;;;;12.52;8.38;;;;;;;21.10;91.39;100321.28;5107676;28;20027;-19
2023/06/22 01:16:16;;;;;;;12.85;8.98;;;;;;;21.18;91.21;100322.59;5107485;28;20035;-18
2023/06/22 01:18:44;;;;;;;11.43;8.48;;;;;;;20.70;95.43;100317.78;5107598;28;20034;-18
2023/06/22 01:21:14;;;;;;;12.55;8.90;;;;;;;20.51;96.42;100331.09;5107572;28;20023;-20
2023/06/22 01:23:45;;;;;;;11.15;8.27;;;;;;;20.40;96.08;100330.34;5107374;28;20070;-18
2023/06/22 01:26:29;;;;;;;9.57;7.97;;;;;;;20.42;96.28;100322.75;5107094;28;20035;-18
2023/06/22 01:28:57;;;;;;;10.98;8.32;;;;;;;20.38;98.89;100320.88;5107419;28;20102;-18
2023/06/22 01:31:29;;;;;;;11.93;8.07;;;;;;;20.47;98.99;100301.06;5107195;28;20111;-20
2023/06/22 01:33:59;;;;;;;13.32;8.50;;;;;;;20.63;95.84;100301.81;5107369;28;20495;-18
2023/06/22 01:36:26;;;;;;;12.68;7.80;;;;;;;20.57;97.98;100312.94;5107236;28;20023;-20
2023/06/22 01:38:53;;;;;;;12.43;8.35;;;;;;;20.40;97.79;100308.69;5107236;28;20438;-17
2023/06/22 01:41:20;;;;;;;10.27;8.45;;;;;;;20.39;100.00;100293.53;5106764;28;20669;-18
2023/06/22 01:43:47;;;;;;;11.23;8.50;;;;;;;20.74;96.83;100309.88;5106885;28;20024;-19
2023/06/22 01:46:14;;;;;;;12.48;8.32;;;;;;;20.74;95.02;100312.59;5106836;28;20055;-18
2023/06/22 01:48:40;;;;;;;12.32;8.93;;;;;;;20.85;93.91;100322.28;5106893;28;20559;-18
2023/06/22 01:51:06;;;;;;;12.05;8.50;;;;;;;20.70;93.95;100312.34;5106856;28;20011;-19
2023/06/22 01:53:31;;;;;;;11.05;8.18;;;;;;;20.70;93.58;100306.09;5106742;28;20160;-18
2023/06/22 01:55:58;;;;;;;13.88;10.32;;;;;;;20.48;95.24;100307.28;5107067;28;20031;-18
2023/06/22 01:58:26;;;;;;;14.90;10.05;;;;;;;20.50;94.95;100283.44;5106817;28;20072;-18
2023/06/22 02:01:06;;;;;;;14.85;10.13;;;;;;;20.50;96.66;100302.41;5106601;28;20023;-18
2023/06/22 02:03:41;;;;;;;13.38;9.43;;;;;;;20.62;95.20;100299.41;5106548;28;20028;-17
2023/06/22 02:06:10;;;;;;;14.13;10.13;;;;;;;20.32;98.37;100306.56;5106567;28;20035;-18
2023/06/22 02:08:46;;;;;;;14.57;10.60;;;;;;;19.90;100.00;100301.56;5106899;28;20116;-18
2023/06/22 02:11:14;;;;;;;15.25;10.25;;;;;;;20.26;100.00;100323.91;5106449;28;20499;-18
2023/06/22 02:13:42;;;;;;;17.00;10.55;;;;;;;20.48;98.85;100315.41;5106289;28;20028;-18
2023/06/22 02:16:11;;;;;;;19.48;12.88;;;;;;;20.52;97.12;100315.69;5106569;28;20020;-19
2023/06/22 02:18:36;;;;;;;19.83;13.23;;;;;;;20.56;98.44;100322.16;5106254;28;20487;-19
2023/06/22 02:21:03;;;;;;;18.48;12.35;;;;;;;20.57;97.78;100330.00;5106538;28;20023;-18
2023/06/22 02:23:28;;;;;;;20.38;11.65;;;;;;;20.46;97.39;100331.94;5106410;28;20034;-18
2023/06/22 02:25:54;;;;;;;17.45;11.23;;;;;;;20.50;97.35;100339.53;5106060;28;20036;-18
2023/06/22 02:28:19;;;;;;;15.65;11.43;;;;;;;20.04;100.00;100326.97;5106358;28;20032;-17
2023/06/22 02:30:44;;;;;;;15.52;10.27;;;;;;;19.79;100.00;100328.66;5106314;28;20089;-18
2023/06/22 02:33:10;;;;;;;14.65;10.32;;;;;;;19.74;100.00;100325.97;5106156;28;20027;-18
2023/06/22 02:35:35;;;;;;;14.20;9.32;;;;;;;19.83;100.00;100335.13;5106095;28;20029;-17
2023/06/22 02:38:02;;;;;;;12.18;8.68;;;;;;;19.91;100.00;100336.47;5105864;28;20023;-18
2023/06/22 02:40:31;;;;;;;14.07;9.50;;;;;;;19.92;100.00;100342.69;5106223;28;20391;-18
2023/06/22 02:43:01;;;;;;;11.23;9.05;;;;;;;19.60;100.00;100339.22;5105925;28;20096;-18
2023/06/22 02:45:26;;;;;;;17.15;9.85;;;;;;;19.76;100.00;100333.81;5106101;28;20066;-18
2023/06/22 02:47:52;;;;;;;13.57;9.15;;;;;;;19.85;100.00;100340.28;5105773;28;20063;-18
2023/06/22 02:50:17;;;;;;;12.23;8.82;;;;;;;19.77;100.00;100348.97;5105584;28;20110;-18
2023/06/22 02:52:43;;;;;;;13.98;9.60;;;;;;;19.68;100.00;100335.16;5105900;28;20054;-18
2023/06/22 02:55:09;;;;;;;14.15;9.15;;;;;;;19.69;100.00;100350.28;5105700;28;20030;-18
2023/06/22 02:57:34;;;;;;;13.23;9.10;;;;;;;19.44;100.00;100348.41;5105952;28;20077;-18
2023/06/22 03:00:00;;;;;;;13.27;8.10;;;;;;;19.48;100.00;100346.78;5105627;28;20721;-18
2023/06/22 03:02:26;;;;;;;11.60;8.65;;;;;;;19.82;99.42;100347.06;5105902;28;20027;-18
2023/06/22 03:04:53;;;;;;;13.30;9.55;;;;;;;20.04;98.90;100352.16;5105686;28;20118;-18
2023/06/22 03:07:20;;;;;;;13.10;10.18;;;;;;;20.12;97.35;100350.75;5105761;28;20024;-18
2023/06/22 03:09:46;;;;;;;17.05;11.30;;;;;;;20.16;96.72;100346.41;5105868;28;20038;-18
2023/06/22 03:12:11;;;;;;;17.25;11.00;;;;;;;20.01;98.96;100360.81;5105542;28;20696;-20
2023/06/22 03:14:38;;;;;;;17.67;11.48;;;;;;;19.54;100.00;100347.59;5105487;28;20077;-18
2023/06/22 03:17:04;;;;;;;17.83;10.43;;;;;;;19.91;100.00;100349.22;5105723;28;20016;-18
2023/06/22 03:19:31;;;;;;;15.48;10.70;;;;;;;20.32;99.40;100360.72;5105747;28;20418;-18
2023/06/22 03:22:00;;;;;;;15.52;10.48;;;;;;;20.31;98.50;100364.53;5105405;28;20426;-18
2023/06/22 03:24:28;;;;;;;16.30;11.07;;;;;;;20.50;98.07;100361.22;5105821;28;20023;-18
2023/06/22 03:26:54;;;;;;;;;;;;;;;20.16;99.87;100353.72;5105822;28;20105;-18
2023/06/22 03:29:20;;;;;;;17.70;10.95;;;;;;;20.24;100.00;100358.59;5105469;28;20710;-18
2023/06/22 03:31:45;;;;;;;15.38;10.90;;;;;;;20.32;98.80;100360.72;5105520;28;20510;-18
2023/06/22 03:34:11;;;;;;;15.32;11.52;;;;;;;20.31;97.87;100359.13;5105275;28;20020;-21
2023/06/22 03:36:36;;;;;;;15.63;12.02;;;;;;;20.29;96.00;100372.13;5105644;28;20731;-18
2023/06/22 03:39:02;;;;;;;14.75;11.18;;;;;;;20.04;99.63;100363.00;5105311;28;20032;-18
2023/06/22 03:41:27;;;;;;;16.02;11.93;;;;;;;20.32;99.07;100355.31;5105257;28;20077;-17
2023/06/22 03:43:52;;;;;;;13.65;11.30;;;;;;;20.32;97.04;100363.44;5105154;28;20030;-18
2023/06/22 03:46:19;;;;;;;15.10;12.30;;;;;;;20.42;97.16;100362.59;5105403;28;20031;-18
2023/06/22 03:48:45;;;;;;;14.75;11.55;;;;;;;20.64;96.03;100357.63;5105321;28;20506;-20
2023/06/22 03:51:10;;;;;;;14.70;11.18;;;;;;;20.52;95.88;100353.59;5105491;28;20019;-18
2023/06/22 03:53:36;;;;;;;13.43;11.48;;;;;;;20.64;94.26;100346.00;5105331;28;20472;-19
2023/06/22 03:56:01;;;;;;;15.80;11.38;;;;;;;20.72;94.59;100361.66;5105194;28;20472;-21
2023/06/22 03:58:27;;;;;;;13.95;11.75;;;;;;;20.93;93.11;100353.41;5105395;28;20028;-18
2023/06/22 04:00:53;;;;;;;14.00;11.88;;;;;;;20.92;92.36;100357.19;5104941;28;20023;-18
2023/06/22 04:03:18;;;;;;;15.07;12.02;;;;;;;21.07;91.43;100349.78;5107218;28;20391;-18
2023/06/22 04:05:44;;;;;;;16.45;12.57;;;;;;;21.03;90.72;100345.22;5108656;28;20016;-19
2023/06/22 04:08:10;;;;;;;15.98;12.60;;;;;;;21.04;91.80;100350.38;5109018;28;20035;-18
2023/06/22 04:10:36;;;;;;;16.05;12.18;;;;;;;20.95;92.98;100343.09;5108536;28;20491;-18
2023/06/22 04:13:01;;;;;;;15.85;11.68;;;;;;;21.13;90.28;100357.91;5108594;28;20534;-19
2023/06/22 04:15:27;;;;;;;13.85;12.20;;;;;;;21.38;88.96;100365.03;5108963;28;20026;-18
2023/06/22 04:17:54;;;;;;;15.32;12.70;;;;;;;21.34;88.92;100361.25;5108435;28;20088;-18
2023/06/22 04:20:20;;;;;;;14.43;12.23;;;;;;;21.48;87.62;100359.53;5108887;28;20093;-17
2023/06/22 04:22:45;;;;;;;16.00;12.32;;;;;;;21.53;86.02;100361.41;5108160;28;20047;-18
2023/06/22 04:25:11;;;;;;;15.07;12.43;;;;;;;21.41;86.87;100370.69;5108630;28;20115;-18
2023/06/22 04:27:39;;;;;;;14.48;12.27;;;;;;;21.21;90.47;100370.84;5108404;28;20104;-18
2023/06/22 04:30:06;;;;;;;16.08;12.30;;;;;;;21.37;89.53;100369.66;5108422;28;20032;-18
2023/06/22 04:32:32;;;;;;;16.93;13.40;;;;;;;21.52;90.37;100366.03;5108275;28;20024;-19
2023/06/22 04:35:00;;;;;;;14.55;12.18;;;;;;;21.61;88.07;100369.72;5108373;28;20127;-18
2023/06/22 04:37:25;;;;;;;16.50;12.95;;;;;;;21.81;85.58;100379.59;5108439;28;20028;-18
2023/06/22 04:39:51;;;;;;;17.73;13.20;;;;;;;21.91;85.15;100378.69;5108127;28;20485;-18
2023/06/22 04:42:17;;;;;;;15.13;12.40;;;;;;;21.87;86.70;100367.59;5107957;28;20120;-18
2023/06/22 04:44:42;;;;;;;14.75;12.05;;;;;;;21.95;86.14;100377.03;5107905;28;20118;-17
2023/06/22 04:47:10;;;;;;;17.17;12.63;;;;;;;22.02;84.66;100385.63;5108084;28;20020;-18
2023/06/22 04:49:37;;;;;;;18.17;12.45;;;;;;;22.11;84.66;100376.84;5108007;28;20031;-19
2023/06/22 04:52:07;;;;;;;15.52;12.88;;;;;;;22.32;84.52;100397.28;5108064;28;20028;-23
2023/06/22 04:54:33;;;;;;;16.10;13.32;;;;;;;22.27;83.10;100392.72;5107841;28;20024;-20
2023/06/22 04:57:00;;;;;;;14.90;12.90;;;;;;;22.46;83.37;100397.41;5107997;28;20035;-18
2023/06/22 04:59:30;;;;;;;15.48;13.15;;;;;;;22.62;83.28;100381.72;5107578;28;20059;-18
2023/06/22 05:02:02;;;;;;;21.85;13.48;;;;;;;22.62;83.22;100381.72;5108025;28;20104;-19
2023/06/22 05:04:31;;;;;;;15.40;13.77;;;;;;;23.03;78.92;100392.06;5107714;28;20152;-18
2023/06/22 05:06:56;;;;;;;19.77;14.95;;;;;;;22.94;79.67;100394.59;5107705;28;20026;-18
2023/06/22 05:09:22;;;;;;;20.75;14.05;;;;;;;23.05;80.82;100390.66;5107686;28;20027;-19
2023/06/22 05:11:47;;;;;;;18.23;13.85;;;;;;;22.90;80.33;100390.84;5107493;28;20036;-18
2023/06/22 05:14:13;;;;;;;17.15;14.27;;;;;;;23.06;80.71;100396.91;5107281;28;20028;-18
2023/06/22 05:16:41;;;;;;;21.10;14.70;;;;;;;23.15;80.11;100395.16;5107174;28;20031;-18
2023/06/22 05:19:07;;;;;;;19.52;15.23;;;;;;;23.21;80.03;100391.25;5107508;28;20103;-19
2023/06/22 05:21:33;;;;;;;17.17;14.57;;;;;;;23.40;79.21;100393.16;5107254;28;20453;-19
2023/06/22 05:24:00;;;;;;;19.02;14.90;;;;;;;23.42;79.94;100389.00;5107278;28;20471;-19
2023/06/22 05:26:30;;;;;;;17.73;15.70;;;;;;;23.52;78.79;100396.22;5107531;28;20502;-18
2023/06/22 05:28:56;;;;;;;19.58;15.18;;;;;;;23.65;78.82;100391.91;5107094;28;20119;-19
2023/06/22 05:31:21;;;;;;;17.50;15.32;;;;;;;23.69;76.93;100387.47;5107228;28;20114;-19
2023/06/22 05:33:48;;;;;;;19.63;15.30;;;;;;;23.49;79.40;100385.91;5107031;28;20086;-19
2023/06/22 05:36:14;;;;;;;18.08;15.52;;;;;;;23.59;79.63;100390.38;5106821;28;20023;-18
2023/06/22 05:38:39;;;;;;;19.17;15.88;;;;;;;23.81;77.68;100392.47;5106943;28;20024;-19
2023/06/22 05:41:06;;;;;;;18.08;16.08;;;;;;;24.04;76.57;100393.41;5106970;28;20091;-19
2023/06/22 05:43:31;;;;;;;21.27;15.80;;;;;;;24.00;76.87;100386.97;5106596;28;20702;-18
2023/06/22 05:45:57;;;;;;;18.30;14.73;;;;;;;23.84;76.81;100389.16;5106908;28;20055;-18
2023/06/22 05:48:22;;;;;;;17.33;14.77;;;;;;;24.28;74.30;100390.50;5106851;28;20023;-19
2023/06/22 05:50:48;;;;;;;20.38;14.65;;;;;;;24.37;74.16;100379.69;5106867;28;20020;-19
2023/06/22 05:53:13;;;;;;;15.85;12.80;;;;;;;24.67;69.94;100383.75;5106895;28;20024;-18
2023/06/22 05:55:39;;;;;;;15.27;12.27;;;;;;;24.81;70.59;100378.25;5106655;28;20111;-19
2023/06/22 05:58:04;;;;;;;14.00;12.25;;;;;;;25.00;70.21;100365.25;5106567;28;20495;-19
2023/06/22 06:00:30;;;;;;;12.98;11.40;;;;;;;25.23;67.26;100374.31;5106670;28;20083;-18
2023/06/22 06:02:56;;;;;;;13.23;11.77;;;;;;;25.10;67.23;100372.41;5106468;28;20047;-18
2023/06/22 06:05:23;;;;;;;16.83;12.57;;;;;;;25.30;66.88;100368.44;5106014;28;20024;-19
2023/06/22 06:07:49;;;;;;;13.25;11.82;;;;;;;25.30;65.21;100367.63;5106564;28;20511;-19
2023/06/22 06:10:15;;;;;;;12.52;10.20;;;;;;;25.36;65.52;100371.84;5106324;28;20043;-18
2023/06/22 06:12:40;;;;;;;12.80;10.98;;;;;;;25.48;63.92;100369.34;5106333;28;20043;-18
2023/06/22 06:15:06;;;;;;;14.05;10.15;;;;;;;25.56;64.47;100374.06;5106441;28;20051;-19
2023/06/22 06:17:31;;;;;;;13.68;10.63;;;;;;;25.58;64.75;100376.47;5106429;28;20045;-19
2023/06/22 06:19:58;;;;;;;13.45;11.15;;;;;;;25.74;64.54;100372.22;5106524;28;20407;-18
2023/06/22 06:22:24;;;;;;;16.10;12.50;;;;;;;25.86;64.86;100374.38;5106332;28;20073;-18
2023/06/22 06:24:49;;;;;;;13.88;11.80;;;;;;;25.85;63.99;100373.56;5105825;28;20040;-18
2023/06/22 06:27:18;;;;;;;13.10;11.30;;;;;;;25.91;64.98;100370.72;5105967;28;20439;-18
2023/06/22 06:29:45;;;;;;;12.88;11.05;;;;;;;25.90;64.58;100355.47;5106249;28;20078;-19
2023/06/22 06:32:11;;;;;;;12.80;11.43;;;;;;;26.19;64.75;100363.91;5106301;28;20525;-19
2023/06/22 06:34:36;;;;;;;12.45;10.73;;;;;;;26.28;62.51;100369.44;5106021;28;20035;-19
2023/06/22 06:37:02;;;;;;;13.15;11.63;;;;;;;26.41;62.60;100373.97;5106488;28;20482;-18
2023/06/22 06:39:27;;;;;;;12.73;11.35;;;;;;;26.38;62.80;100365.59;5105971;28;20032;-19
2023/06/22 06:41:52;;;;;;;11.95;10.75;;;;;;;26.56;61.69;100375.47;5103386;28;20035;-18
2023/06/22 06:44:18;;;;;;;15.07;11.05;;;;;;;26.57;63.42;100381.72;5105485;28;20022;-19
2023/06/22 06:46:44;;;;;;;12.15;10.90;;;;;;;26.61;64.65;100369.06;5104833;28;20046;-21
2023/06/22 06:49:10;;;;;;;14.32;12.38;;;;;;;26.71;62.21;100382.44;5105790;28;20027;-20
2023/06/22 06:51:35;;;;;;;12.93;11.43;;;;;;;26.67;63.12;100381.47;5105920;28;20094;-18
2023/06/22 06:54:03;;;;;;;13.32;11.50;;;;;;;26.79;63.53;100381.63;5105642;28;20031;-18
2023/06/22 06:56:29;;;;;;;12.60;11.30;;;;;;;26.81;61.10;100390.31;5105696;28;20028;-18
2023/06/22 06:58:55;;;;;;;12.98;11.57;;;;;;;27.04;62.52;100384.69;5105773;28;20035;-19
2023/06/22 07:01:20;;;;;;;13.00;11.45;;;;;;;27.08;62.17;100385.66;5105587;28;20031;-24
2023/06/22 07:03:46;;;;;;;15.68;11.48;;;;;;;27.59;60.70;100384.03;5087291;28;20042;-18
2023/06/22 07:06:11;;;;;;;13.70;12.23;;;;;;;27.49;61.72;100370.69;5105647;28;20491;-18
2023/06/22 07:08:37;;;;;;;18.65;11.20;;;;;;;27.78;58.05;100385.59;5105774;28;20047;-22
2023/06/22 07:11:02;;;;;;;13.70;11.20;;;;;;;27.68;57.49;100388.69;5105730;28;20101;-18
2023/06/22 07:13:28;;;;;;;14.32;11.40;;;;;;;27.96;58.45;100380.88;5105452;28;20691;-21
2023/06/22 07:15:53;;;;;;;13.38;10.50;;;;;;;27.95;58.77;100380.09;5105398;28;20468;-18
2023/06/22 07:18:19;;;;;;;13.60;11.27;;;;;;;27.84;60.47;100378.81;5105193;28;20039;-19
2023/06/22 07:20:44;;;;;;;14.77;10.50;;;;;;;27.62;60.06;100377.91;5105444;28;20027;-18
2023/06/22 07:23:10;;;;;;;11.80;10.43;;;;;;;27.81;58.37;100376.72;5105399;28;20490;-19
2023/06/22 07:25:35;;;;;;;15.88;10.43;;;;;;;28.24;57.68;100386.75;5105634;28;20118;-18
2023/06/22 07:28:05;;;;;;;11.93;10.65;;;;;;;28.24;57.05;100390.28;5105378;28;20020;-19
2023/06/22 07:30:32;;;;;;;12.20;10.63;;;;;;;28.31;55.59;100376.03;5105103;28;20031;-20
2023/06/22 07:32:58;;;;;;;11.73;10.23;;;;;;;28.66;57.02;100381.34;5105262;28;20023;-18
2023/06/22 07:35:24;;;;;;;13.18;10.50;;;;;;;28.78;56.85;100378.69;5105349;28;20031;-18
2023/06/22 07:37:49;;;;;;;11.70;9.75;;;;;;;28.94;54.08;100387.13;5108306;28;20024;-19
2023/06/22 07:40:15;;;;;;;12.00;9.65;;;;;;;29.13;53.87;100383.13;5109412;28;20024;-18
2023/06/22 07:42:40;;;;;;;15.10;9.43;;;;;;;29.34;52.57;100383.91;5090827;28;20446;-18
2023/06/22 07:45:08;;;;;;;12.95;9.02;;;;;;;29.39;51.01;100374.66;5109404;28;20569;-19
2023/06/22 07:47:35;;;;;;;9.77;8.50;;;;;;;29.33;50.24;100392.47;5109312;28;20084;-18
2023/06/22 07:50:01;;;;;;;13.00;8.90;;;;;;;29.40;51.44;100381.72;5108566;28;20028;-18
2023/06/22 07:52:30;;;;;;;9.40;8.35;;;;;;;29.49;50.80;100389.91;5108044;28;20027;-17
2023/06/22 07:54:56;;;;;;;11.52;9.48;;;;;;;29.48;52.49;100388.28;5108349;28;20506;-18
2023/06/22 07:57:21;;;;;;;9.80;8.50;;;;;;;29.38;50.57;100384.84;5108462;28;20046;-18
2023/06/22 07:59:47;;;;;;;9.23;8.30;;;;;;;29.48;48.83;100383.59;5108251;28;20555;-18
2023/06/22 08:02:12;;;;;;;9.73;7.97;;;;;;;29.50;49.43;100384.06;5108745;28;20434;-19
2023/06/22 08:04:39;;;;;;;9.65;8.30;;;;;;;29.57;51.38;100380.78;5108807;28;20055;-21
2023/06/22 08:07:04;;;;;;;11.25;8.70;;;;;;;29.86;47.96;100377.06;5109023;28;20024;-18
2023/06/22 08:09:32;;;;;;;9.88;8.55;;;;;;;29.84;47.45;100387.59;5108752;28;20030;-18
2023/06/22 08:11:58;;;;;;;10.88;8.45;;;;;;;29.80;48.67;100378.44;5108854;28;20020;-19
2023/06/22 08:14:25;;;;;;;11.27;9.23;;;;;;;29.92;48.99;100375.69;5108840;28;20032;-19
2023/06/22 08:16:50;;;;;;;11.20;8.20;;;;;;;30.09;47.47;100377.44;5108627;28;20030;-19
2023/06/22 08:19:16;;;;;;;10.63;8.00;;;;;;;29.98;47.27;100379.84;5108750;28;20024;-18
2023/06/22 08:21:42;;;;;;;9.57;8.55;;;;;;;30.11;48.08;100388.88;5108608;28;20601;-19
2023/06/22 08:24:08;;;;;;;10.23;7.55;;;;;;;30.35;46.46;100379.06;5091522;28;20024;-19
2023/06/22 08:26:36;;;;;;;8.93;8.02;;;;;;;30.62;46.70;100385.78;5088058;28;20089;-19
2023/06/22 08:29:03;;;;;;;10.23;8.63;;;;;;;30.59;45.22;100381.00;5088105;28;20063;-18
2023/06/22 08:31:28;;;;;;;9.73;8.13;;;;;;;30.82;47.72;100373.81;5088178;28;20028;-19
2023/06/22 08:33:53;;;;;;;9.95;8.30;;;;;;;30.83;45.00;100375.44;5087721;28;20032;-18
2023/06/22 08:36:19;;;;;;;10.07;8.45;;;;;;;30.96;45.56;100378.19;5088089;28;20408;-19
2023/06/22 08:38:44;;;;;;;11.23;9.02;;;;;;;31.06;45.46;100372.19;5087814;28;20024;-19
2023/06/22 08:41:10;;;;;;;13.73;9.13;;;;;;;30.97;45.49;100380.56;5088017;28;20414;-19
2023/06/22 08:43:36;;;;;;;14.75;9.32;;;;;;;31.26;44.46;100375.06;5087667;28;20430;-18
2023/06/22 08:46:02;;;;;;;10.25;8.05;;;;;;;31.42;43.04;100373.94;5087950;28;20032;-18
2023/06/22 08:48:28;;;;;;;10.13;7.57;;;;;;;31.66;43.60;100365.94;5086982;28;20032;-18
2023/06/22 08:50:53;;;;;;;20.13;9.38;;;;;;;31.90;41.77;100363.00;5087641;28;20050;-19
2023/06/22 08:53:19;;;;;;;59.97;15.95;;;;;;;31.90;42.06;100359.44;5087667;28;20419;-18
2023/06/22 08:55:45;;;;;;;54.47;17.17;;;;;;;31.71;42.71;100352.69;5087473;28;20090;-18
2023/06/22 08:58:10;;;;;;;49.85;15.98;;;;;;;31.93;41.36;100359.50;5087561;28;20020;-22
2023/06/22 09:00:35;;;;;;;14.48;7.93;;;;;;;32.02;41.70;100357.41;5087562;28;20804;-18
2023/06/22 09:03:01;;;;;;;14.40;8.52;;;;;;;31.98;40.12;100356.50;5087458;28;20032;-19
2023/06/22 09:05:27;;;;;;;72.75;19.67;;;;;;;32.10;41.17;100350.13;5086949;28;20042;-19
2023/06/22 09:07:54;;;;;;;30.25;12.27;;;;;;;32.07;38.76;100350.03;5087665;28;20020;-18
2023/06/22 09:10:20;;;;;;;31.10;12.02;;;;;;;32.17;38.68;100341.19;5087422;28;20039;-19
2023/06/22 09:12:45;;;;;;;9.35;7.43;;;;;;;32.03;38.50;100350.72;5087389;28;20497;-19
2023/06/22 09:15:11;;;;;;;8.77;7.88;;;;;;;31.99;39.42;100338.81;5087071;28;20032;-19
2023/06/22 09:17:37;;;;;;;9.35;7.40;;;;;;;32.18;40.03;100342.78;5087289;28;20039;-19
2023/06/22 09:20:05;;;;;;;9.50;8.07;;;;;;;32.53;39.04;100336.47;5087229;28;20052;-19
2023/06/22 09:22:31;;;;;;;10.95;7.68;;;;;;;32.62;38.94;100335.13;5086822;28;20515;-21
2023/06/22 09:24:57;;;;;;;9.88;8.10;;;;;;;32.99;37.11;100333.91;5087183;28;20025;-19
2023/06/22 09:27:23;;;;;;;11.25;7.93;;;;;;;32.99;39.13;100331.94;5086856;28;20038;-18
2023/06/22 09:29:49;;;;;;;9.95;7.35;;;;;;;32.91;37.57;100340.44;5087099;28;20027;-19
2023/06/22 09:32:15;;;;;;;11.37;7.53;;;;;;;33.20;36.94;100336.31;5086939;28;20036;-18
2023/06/22 09:34:40;;;;;;;10.32;7.70;;;;;;;33.05;36.88;100339.94;5087038;28;20434;-19
2023/06/22 09:37:06;;;;;;;11.40;7.93;;;;;;;32.69;37.76;100328.94;5087080;28;20028;-21
2023/06/22 09:39:31;;;;;;;10.27;7.55;;;;;;;33.04;36.53;100333.63;5086616;28;20164;-18
2023/06/22 09:41:59;;;;;;;8.10;7.15;;;;;;;32.92;36.75;100331.81;5086655;28;20135;-18
2023/06/22 09:44:25;;;;;;;9.23;7.60;;;;;;;32.92;35.57;100328.25;5086408;28;20065;-18
2023/06/22 09:46:50;;;;;;;9.02;6.95;;;;;;;33.08;36.87;100334.53;5086779;28;20072;-19
2023/06/22 09:49:16;;;;;;;11.02;7.68;;;;;;;33.18;36.73;100336.69;5086606;28;20023;-18
2023/06/22 09:51:41;;;;;;;8.90;7.63;;;;;;;33.17;36.41;100324.03;5086627;28;20451;-20
2023/06/22 09:54:07;;;;;;;8.95;7.03;;;;;;;33.39;34.49;100330.75;5086758;28;20664;-19
2023/06/22 09:56:32;;;;;;;10.20;6.97;;;;;;;33.54;34.48;100329.03;5086410;28;20444;-19
2023/06/22 09:58:57;;;;;;;10.88;7.40;;;;;;;33.79;35.12;100328.66;5086418;28;20430;-19
2023/06/22 10:01:24;;;;;;;9.13;7.25;;;;;;;33.78;34.08;100324.31;5085374;28;20066;-18
2023/06/22 10:03:50;;;;;;;8.45;7.43;;;;;;;33.40;34.66;100328.78;5086235;28;20028;-18
2023/06/22 10:06:15;;;;;;;9.43;7.80;;;;;;;33.26;36.04;100328.50;5086333;28;20039;-19
2023/06/22 10:08:41;;;;;;;10.32;7.90;;;;;;;33.17;36.63;100326.78;5086373;28;20050;-21
2023/06/22 10:11:06;;;;;;;10.63;7.40;;;;;;;33.59;35.26;100331.50;5086356;28;20078;-19
2023/06/22 10:13:32;;;;;;;9.57;7.15;;;;;;;34.19;34.59;100319.03;5086286;28;20466;-18
2023/06/22 10:15:57;;;;;;;10.43;7.85;;;;;;;33.87;35.60;100324.06;5085737;28;20782;-19
2023/06/22 10:18:23;;;;;;;12.57;7.47;;;;;;;33.95;35.20;100321.03;5086283;28;20123;-18
2023/06/22 10:20:53;;;;;;;10.25;6.93;;;;;;;33.73;35.03;100319.09;5086149;28;20057;-20
2023/06/22 10:23:22;;;;;;;10.18;7.55;;;;;;;33.12;34.18;100323.50;5085807;28;20024;-18
2023/06/22 10:25:47;;;;;;;9.98;7.50;;;;;;;33.10;34.75;100321.13;5085877;28;20024;-19
2023/06/22 10:28:16;;;;;;;9.70;7.45;;;;;;;33.53;35.36;100316.38;5085984;28;20407;-19
2023/06/22 10:30:42;;;;;;;11.38;7.63;;;;;;;33.87;32.69;100315.75;5085904;28;20525;-19
2023/06/22 10:33:08;;;;;;;9.43;7.00;;;;;;;34.34;33.25;100309.75;5085896;28;20043;-19
2023/06/22 10:35:35;;;;;;;8.73;7.53;;;;;;;35.00;32.93;100312.16;5085941;28;20487;-19
2023/06/22 10:38:00;;;;;;;12.07;7.28;;;;;;;35.06;31.98;100305.09;5085467;28;20024;-19
2023/06/22 10:40:26;;;;;;;8.90;7.43;;;;;;;34.94;31.59;100302.59;5085995;28;20589;-21
2023/06/22 10:42:51;;;;;;;11.32;7.40;;;;;;;34.90;32.74;100290.69;5085624;28;20095;-23
2023/06/22 10:45:16;;;;;;;9.88;7.55;;;;;;;34.77;32.77;100292.91;5085596;28;20108;-18
2023/06/22 10:47:42;;;;;;;10.20;7.15;;;;;;;34.65;32.18;100284.84;5085826;28;20081;-23
2023/06/22 10:50:08;;;;;;;13.65;7.82;;;;;;;34.25;33.74;100289.88;5085784;28;20096;-19
2023/06/22 10:52:34;;;;;;;8.65;6.97;;;;;;;33.91;32.68;100289.75;5085781;28;20510;-18
2023/06/22 10:54:59;;;;;;;8.98;7.45;;;;;;;34.14;32.54;100295.28;5085580;28;20028;-19
2023/06/22 10:57:24;;;;;;;7.88;7.07;;;;;;;34.36;32.03;100290.81;5085464;28;20115;-19
2023/06/22 10:59:50;;;;;;;8.55;7.60;;;;;;;34.74;34.38;100271.53;5085564;28;20553;-19
2023/06/22 11:02:15;;;;;;;7.95;7.15;;;;;;;34.10;33.32;100285.28;5085179;28;20046;-18
2023/06/22 11:04:41;;;;;;;11.05;7.57;;;;;;;33.85;34.71;100277.41;5085559;28;20028;-19
2023/06/22 11:07:06;;;;;;;8.73;7.82;;;;;;;33.88;35.13;100275.84;5085298;28;20028;-19
2023/06/22 11:09:31;;;;;;;11.55;7.90;;;;;;;33.59;35.82;100276.19;5085476;28;20062;-20
2023/06/22 11:11:58;;;;;;;8.75;7.75;;;;;;;33.00;36.51;100283.03;5086964;28;20051;-19